الصفحة الرئيسية
METAR-TAF:

METAR-TAF

مطار :

Asahikawa, اليابان

دائرة عرض: 43-40N, خط طول: 142-27E, ارتفاع: 208 متر

مراقبة الطقس الحالي

تاريخ ووقت الإصدار 1ساعة و 10 دقيقة قبل الساعة 12:00UTC
ريح 7 عقدة من الجنوب/الجنوب الشرقي
درجة الحرارة 16°درجة مئوية
الرطوبة 88%
ضغط 1002 hPa
الرؤية 10 كم أو أكثر
غيوم قليلة على ارتفاع 4800 قدم
غيوم مفككة على ارتفاع 5000 قدم
ملبد بالغيوم على ارتفاع 7000 قدم

METAR: RJEC 241200Z AUTO 15007KT 9999 FEW048 BKN050 OVC070 16/14 Q1002

زمن: 22:10 (13:10 UTC)

توقعات

تاريخ ووقت الإصدار 2ساعات و 5 دقيقة قبل الساعة 11:05UTC
التوقعات صالحة من24 الساعة 12 UTC إلى 25 الساعة 18 UTC
ريح 11 عقدة من الجنوب
الرؤية 10 كم أو أكثر
غيوم قليلة على ارتفاع 500 قدم
غيوم مفككة على ارتفاع 1500 قدم
مؤقت
من 24 الساعة 15 UTC إلى 24 الساعة 21 UTC
الرؤية: 2000 متر
غيوم قليلة على ارتفاع 300 قدم
غيوم مفككة على ارتفاع 500 قدم
غشاء
أصبح
من 25 الساعة 03 UTC إلى 25 الساعة 06 UTC
ريح 10 عقدة من الشمال الغربي

TAF: RJEC 241105Z 2412/2518 18011KT 9999 FEW005 BKN015 TEMPO 2415/2421 2000 BR FEW003 BKN005 BECMG 2503/2506 32010KT

أرصاد الطقس والتوقعات من أكثر من 4000 مطار (تقارير الطقس للمطار METAR والتنبؤ بالطقس بالمطارTAF).

المحطات المتاحة هي النقط الصفراء والحمراء على الخريطة.

حرك المؤشر فوق النقطة لمعرفة اسم المحطة.

ثم انقر لمعرفة أرصاد وتوقعات الطقس.

لتغيير الخارطة: اضغط على الأزرار الخضراء مع رمز الصليب الأسود للتكبير. على الزر الأخضر مع شرطة للتصغير، أو على الأسهم الخضراء للخرائط المجاورة.


METAR-TAF: